Time;durP1;ratioP1;P1;durP2;ratioP2;P2;SDS_P1;SDS_P2;PMS_P1;PMS_P2;Temp;Humidity;BMP_temperature;BMP_pressure;BME280_temperature;BME280_humidity;BME280_pressure;Samples;Min_cycle;Max_cycle;Signal;HPM_P1;HPM_P2
2021/12/13 00:01:50;;;;;;;28.02;17.48;;;51.90;2227.20;;;;;;4950355;29;19907;-51
2021/12/13 00:04:27;;;;;;;10.82;7.30;;;51.60;2227.20;;;;;;4950591;29;20070;-57
2021/12/13 00:07:02;;;;;;;17.17;11.05;;;51.60;2227.20;;;;;;4950394;29;20031;-56
2021/12/13 00:09:30;;;;;;;10.45;7.80;;;51.70;2227.20;;;;;;5010991;28;20026;-63
2021/12/13 00:12:00;;;;;;;13.80;8.38;;;51.80;2227.20;;;;;;5010812;28;20379;-54
2021/12/13 00:14:33;;;;;;;30.10;23.65;;;51.90;2227.20;;;;;;5010701;28;20538;-54
2021/12/13 00:17:23;;;;;;;9.73;7.43;;;51.90;2227.20;;;;;;5010657;28;20042;-60
2021/12/13 00:19:55;;;;;;;29.50;19.35;;;51.90;2227.20;;;;;;5010933;28;20386;-60
2021/12/13 00:22:33;;;;;;;10.27;7.00;;;51.90;2227.20;;;;;;5010582;28;20037;-61
2021/12/13 00:25:10;;;;;;;12.48;8.23;;;51.80;2227.20;;;;;;4992993;28;20404;-56
2021/12/13 00:27:46;;;;;;;13.40;9.05;;;51.70;2227.20;;;;;;5010670;28;20132;-52
2021/12/13 00:30:37;;;;;;;12.68;7.10;;;51.80;2227.20;;;;;;5010526;28;20108;-53
2021/12/13 00:33:17;;;;;;;15.50;10.50;;;51.90;2227.20;;;;;;5010687;28;20033;-54
2021/12/13 00:35:47;;;;;;;8.25;6.43;;;52.00;2227.20;;;;;;5010429;28;20093;-61
2021/12/13 00:38:16;;;;;;;8.63;5.22;;;52.10;2227.20;;;;;;5010599;28;20022;-55
2021/12/13 00:40:52;;;;;;;9.30;6.07;;;52.00;2227.20;;;;;;5010557;28;20026;-62
2021/12/13 00:43:26;;;;;;;12.15;7.22;;;52.00;2227.20;;;;;;5010270;28;20022;-58
2021/12/13 00:46:01;;;;;;;12.40;11.10;;;52.00;2227.20;;;;;;5010421;28;20033;-64
2021/12/13 00:48:31;;;;;;;8.48;6.00;;;52.00;2227.20;;;;;;5010336;28;20503;-67
2021/12/13 00:51:02;;;;;;;12.80;8.45;;;52.10;2227.20;;;;;;5010189;28;20026;-63
2021/12/13 00:53:34;;;;;;;11.00;8.40;;;52.00;1971.20;;;;;;5010113;28;20022;-59
2021/12/13 00:56:01;;;;;;;9.23;6.32;;;52.00;2227.20;;;;;;5010189;28;20128;-56
2021/12/13 00:58:27;;;;;;;10.60;7.40;;;52.00;2227.20;;;;;;5010206;28;20029;-56
2021/12/13 01:01:08;;;;;;;8.20;5.90;;;52.00;2227.20;;;;;;5010311;28;20022;-64
2021/12/13 01:03:47;;;;;;;11.63;8.07;;;52.10;2227.20;;;;;;5010428;28;20022;-54
2021/12/13 01:06:50;;;;;;;9.57;7.30;;;52.10;2227.20;;;;;;5010355;28;20033;-63
2021/12/13 01:09:59;;;;;;;9.73;7.00;;;51.90;2227.20;;;;;;5010320;28;20033;-54
2021/12/13 01:12:26;;;;;;;12.05;7.88;;;51.90;2227.20;;;;;;5010230;28;20022;-63
2021/12/13 01:15:00;;;;;;;11.77;7.43;;;52.00;2227.20;;;;;;5010193;28;20033;-52
2021/12/13 01:17:44;;;;;;;9.38;5.13;;;52.00;2227.20;;;;;;5010235;28;20032;-63
2021/12/13 01:20:25;;;;;;;8.73;6.45;;;52.00;2227.20;;;;;;5010116;28;20225;-57
2021/12/13 01:23:00;;;;;;;10.00;7.45;;;51.90;2227.20;;;;;;5009951;28;20054;-61
2021/12/13 01:25:42;;;;;;;11.55;8.75;;;52.00;2227.20;;;;;;5010010;28;20053;-53
2021/12/13 01:28:10;;;;;;;8.43;6.13;;;76.90;2227.20;;;;;;5010209;28;20117;-64
2021/12/13 01:30:45;;;;;;;21.23;18.42;;;52.10;2227.20;;;;;;5010073;28;20026;-67
2021/12/13 01:33:14;;;;;;;16.08;10.57;;;52.00;2227.20;;;;;;5010074;28;20141;-61
2021/12/13 01:35:43;;;;;;;13.15;8.57;;;52.10;2227.20;;;;;;5009784;28;20096;-55
2021/12/13 01:38:31;;;;;;;10.30;7.70;;;52.10;2227.20;;;;;;5009875;28;20022;-62
2021/12/13 01:40:59;;;;;;;15.70;10.77;;;52.10;2227.20;;;;;;5009833;28;20073;-58
2021/12/13 01:43:31;;;;;;;12.40;7.75;;;51.90;2227.20;;;;;;5009837;28;20033;-62
2021/12/13 01:45:58;;;;;;;10.80;7.43;;;52.10;2227.20;;;;;;5009846;28;20030;-66
2021/12/13 01:48:34;;;;;;;10.10;6.80;;;52.10;1920.00;;;;;;5009947;28;20044;-59
2021/12/13 01:51:05;;;;;;;11.80;7.88;;;52.10;2227.20;;;;;;5009743;28;20026;-63
2021/12/13 01:53:53;;;;;;;14.50;7.93;;;76.80;2227.20;;;;;;5009659;28;20042;-54
2021/12/13 01:59:54;;;;;;;13.07;8.60;;;52.10;2227.20;;;;;;5010124;28;20032;-58
2021/12/13 02:02:23;;;;;;;16.00;11.70;;;52.10;2227.20;;;;;;4929924;29;20068;-60
2021/12/13 02:05:10;;;;;;;15.95;10.07;;;52.10;2227.20;;;;;;4930144;29;20048;-62
2021/12/13 02:07:44;;;;;;;23.83;15.18;;;76.80;2227.20;;;;;;4933768;29;20051;-53
2021/12/13 02:10:29;;;;;;;13.40;11.70;;;52.10;2227.20;;;;;;4933448;29;20052;-63
2021/12/13 02:13:01;;;;;;;12.73;8.10;;;52.10;2227.20;;;;;;4933647;29;20043;-64
2021/12/13 02:18:19;;;;;;;16.50;14.65;;;52.00;2227.20;;;;;;4933828;29;20046;-60
2021/12/13 02:20:52;;;;;;;11.13;7.07;;;52.10;2227.20;;;;;;4933579;29;20031;-60
2021/12/13 02:23:20;;;;;;;10.97;7.20;;;52.10;2227.20;;;;;;4933011;29;20075;-55
2021/12/13 02:25:50;;;;;;;10.48;6.90;;;52.10;2227.20;;;;;;4933083;29;20399;-58
2021/12/13 02:28:21;;;;;;;10.13;7.40;;;52.00;2227.20;;;;;;4933342;29;20399;-62
2021/12/13 02:30:49;;;;;;;9.43;6.88;;;52.00;2227.20;;;;;;4932988;29;20083;-53
2021/12/13 02:33:21;;;;;;;23.13;15.95;;;52.00;2227.20;;;;;;4933374;29;20059;-63
2021/12/13 02:35:59;;;;;;;14.02;8.02;;;52.00;2227.20;;;;;;4932927;29;20053;-63
2021/12/13 02:38:27;;;;;;;8.02;5.07;;;51.90;2227.20;;;;;;4997483;28;20033;-58
2021/12/13 02:40:53;;;;;;;11.43;6.70;;;51.90;2227.20;;;;;;5012478;28;20034;-66
2021/12/13 02:43:24;;;;;;;8.82;5.65;;;52.00;2227.20;;;;;;5012455;28;20026;-62
2021/12/13 02:45:54;;;;;;;7.30;5.45;;;52.00;2227.20;;;;;;5012426;28;20030;-57
2021/12/13 02:48:40;;;;;;;8.98;4.93;;;51.90;2124.80;;;;;;5012319;28;20465;-52
2021/12/13 02:51:13;;;;;;;8.02;5.40;;;51.90;2073.60;;;;;;5012340;28;20065;-62
2021/12/13 02:53:46;;;;;;;32.40;17.63;;;52.00;2227.20;;;;;;5012444;28;20121;-67
2021/12/13 02:56:15;;;;;;;10.65;5.72;;;52.00;2227.20;;;;;;5012316;28;20365;-64
2021/12/13 02:58:42;;;;;;;20.65;10.35;;;52.00;2227.20;;;;;;5012334;28;20034;-59
2021/12/13 03:01:12;;;;;;;8.13;5.38;;;52.00;2227.20;;;;;;5012053;28;20137;-61
2021/12/13 03:03:45;;;;;;;18.25;9.38;;;52.10;2227.20;;;;;;5012057;28;20032;-64
2021/12/13 03:06:15;;;;;;;8.50;4.97;;;52.00;1945.60;;;;;;5012404;28;20113;-59
2021/12/13 03:08:46;;;;;;;29.58;16.13;;;52.10;2227.20;;;;;;5011911;28;20290;-59
2021/12/13 03:11:28;;;;;;;11.20;7.00;;;76.80;2227.20;;;;;;5012131;28;20040;-56
2021/12/13 03:14:05;;;;;;;10.27;5.35;;;76.80;2227.20;;;;;;5011944;28;20026;-63
2021/12/13 03:17:00;;;;;;;10.95;6.45;;;76.90;2227.20;;;;;;5011564;28;20046;-57
2021/12/13 03:19:38;;;;;;;9.68;6.47;;;76.90;2227.20;;;;;;4983811;28;20069;-63
2021/12/13 03:22:35;;;;;;;24.50;11.85;;;77.00;2227.20;;;;;;5011995;28;20387;-58
2021/12/13 03:25:25;;;;;;;8.13;6.15;;;76.90;2227.20;;;;;;5012061;28;20444;-51
2021/12/13 03:28:13;;;;;;;7.97;5.60;;;76.90;2227.20;;;;;;5011950;28;20044;-62
2021/12/13 03:30:59;;;;;;;8.88;4.80;;;76.90;2201.60;;;;;;5011433;28;20077;-57
2021/12/13 03:33:48;;;;;;;10.68;6.03;;;76.90;2227.20;;;;;;5011906;28;20053;-63
2021/12/13 03:36:16;;;;;;;10.23;6.03;;;76.90;2227.20;;;;;;5011343;28;20492;-57
2021/12/13 03:38:47;;;;;;;8.00;5.90;;;76.90;2227.20;;;;;;5011523;28;20022;-53
2021/12/13 03:41:17;;;;;;;8.00;5.47;;;76.90;2227.20;;;;;;5011473;28;20030;-63
2021/12/13 03:44:01;;;;;;;15.52;11.18;;;76.90;2227.20;;;;;;5011564;28;20065;-60
2021/12/13 03:46:30;;;;;;;10.77;6.85;;;76.90;2227.20;;;;;;4993472;28;20025;-58
2021/12/13 03:48:59;;;;;;;8.57;5.60;;;77.00;2227.20;;;;;;5011297;28;20104;-55
2021/12/13 03:51:34;;;;;;;8.15;5.22;;;77.10;2227.20;;;;;;5011265;28;20083;-55
2021/12/13 03:54:01;;;;;;;8.13;5.88;;;77.10;2227.20;;;;;;5011347;28;20038;-58
2021/12/13 03:56:30;;;;;;;7.72;5.20;;;77.00;2227.20;;;;;;5011051;28;20392;-52
2021/12/13 03:59:08;;;;;;;9.30;5.10;;;77.00;2227.20;;;;;;5011056;28;20033;-60
2021/12/13 04:01:42;;;;;;;9.13;5.80;;;77.00;2227.20;;;;;;5011274;28;20037;-57
2021/12/13 04:04:13;;;;;;;48.70;34.78;;;77.00;2227.20;;;;;;5010959;28;20469;-52
2021/12/13 04:06:49;;;;;;;9.98;6.93;;;77.00;2227.20;;;;;;5011227;28;20439;-55
2021/12/13 04:09:16;;;;;;;9.07;6.00;;;77.10;2227.20;;;;;;5011316;28;20395;-58
2021/12/13 04:11:45;;;;;;;7.63;5.28;;;77.10;2227.20;;;;;;5011081;28;20553;-57
2021/12/13 04:14:18;;;;;;;9.57;7.82;;;77.00;2227.20;;;;;;5010776;28;20022;-54
2021/12/13 04:17:04;;;;;;;9.98;6.43;;;77.00;2227.20;;;;;;5010788;28;20495;-58
2021/12/13 04:19:49;;;;;;;8.98;6.20;;;76.90;2227.20;;;;;;5010879;28;20076;-56
2021/12/13 04:22:18;;;;;;;10.63;6.72;;;76.90;2227.20;;;;;;5010870;28;20033;-57
2021/12/13 04:24:54;;;;;;;9.60;6.93;;;77.10;2227.20;;;;;;5010773;28;20061;-54
2021/12/13 04:27:37;;;;;;;10.70;8.00;;;77.10;2227.20;;;;;;5010466;28;20120;-66
2021/12/13 04:30:13;;;;;;;11.27;7.93;;;77.10;2227.20;;;;;;5010639;28;20061;-59
2021/12/13 04:32:46;;;;;;;14.80;12.90;;;77.10;2227.20;;;;;;5010544;28;20034;-64
2021/12/13 04:35:13;;;;;;;11.20;8.20;;;77.10;2227.20;;;;;;5010704;28;20453;-52
2021/12/13 04:37:43;;;;;;;10.45;9.07;;;77.00;2227.20;;;;;;5010584;28;20121;-52
2021/12/13 04:40:17;;;;;;;9.02;6.30;;;77.10;2227.20;;;;;;5010582;28;20048;-56
2021/12/13 04:42:44;;;;;;;7.82;5.20;;;77.10;2227.20;;;;;;5010815;28;20060;-67
2021/12/13 04:45:16;;;;;;;8.55;6.13;;;77.10;2227.20;;;;;;5010335;28;20037;-64
2021/12/13 04:48:09;;;;;;;10.60;7.05;;;77.10;2227.20;;;;;;5010501;28;20088;-68
2021/12/13 04:50:50;;;;;;;9.57;7.40;;;77.10;2227.20;;;;;;5010866;28;20558;-68
2021/12/13 04:53:29;;;;;;;10.15;7.00;;;77.10;2227.20;;;;;;5010251;28;20022;-59
2021/12/13 04:55:58;;;;;;;10.82;6.88;;;77.10;2227.20;;;;;;5010273;28;20053;-64
2021/12/13 04:58:24;;;;;;;9.90;7.70;;;77.20;2227.20;;;;;;5010611;28;20020;-61
2021/12/13 05:00:54;;;;;;;9.15;6.82;;;77.20;2227.20;;;;;;5010199;28;20026;-54
2021/12/13 05:03:24;;;;;;;6.75;4.82;;;77.10;2227.20;;;;;;5010057;28;20026;-60
2021/12/13 05:05:50;;;;;;;10.55;6.20;;;77.10;2227.20;;;;;;5010319;28;20034;-66
2021/12/13 05:08:19;;;;;;;8.20;6.43;;;77.10;2227.20;;;;;;5010290;28;20022;-61
2021/12/13 05:10:48;;;;;;;12.02;8.23;;;77.00;2227.20;;;;;;5010341;28;20401;-60
2021/12/13 05:13:28;;;;;;;9.50;8.13;;;76.90;2227.20;;;;;;5010299;28;20029;-52
2021/12/13 05:16:01;;;;;;;9.73;6.22;;;76.90;2227.20;;;;;;5010497;28;20022;-58
2021/12/13 05:18:31;;;;;;;7.82;5.30;;;77.00;2227.20;;;;;;5010072;28;20087;-57
2021/12/13 05:21:09;;;;;;;8.90;5.82;;;77.00;2227.20;;;;;;5009989;28;20353;-58
2021/12/13 05:23:47;;;;;;;7.82;4.95;;;77.00;2227.20;;;;;;5010021;28;20046;-57
2021/12/13 05:26:26;;;;;;;8.35;6.38;;;77.00;2227.20;;;;;;5010291;28;20034;-64
2021/12/13 05:28:53;;;;;;;9.77;7.32;;;77.10;2227.20;;;;;;5010297;28;20034;-57
2021/12/13 05:31:24;;;;;;;9.10;7.13;;;77.20;2227.20;;;;;;5009917;28;20033;-64
2021/12/13 05:33:55;;;;;;;9.40;7.72;;;77.20;2227.20;;;;;;5009898;28;20026;-60
2021/12/13 05:36:29;;;;;;;7.22;5.53;;;77.20;2227.20;;;;;;5010016;28;20112;-62
2021/12/13 05:39:21;;;;;;;9.30;6.03;;;77.20;2227.20;;;;;;5010254;28;20075;-58
2021/12/13 05:42:07;;;;;;;11.15;8.02;;;77.40;2227.20;;;;;;5009079;28;20180;-55
2021/12/13 05:44:36;;;;;;;11.32;8.50;;;77.30;2227.20;;;;;;5013698;28;20100;-52
2021/12/13 05:47:06;;;;;;;10.98;8.65;;;77.10;2227.20;;;;;;5013631;28;20026;-56
2021/12/13 05:49:40;;;;;;;11.95;9.10;;;77.10;2227.20;;;;;;5013684;28;20018;-64
2021/12/13 05:52:06;;;;;;;13.13;8.43;;;77.20;2227.20;;;;;;5013393;28;20030;-53
2021/12/13 05:54:36;;;;;;;9.63;7.22;;;77.20;2227.20;;;;;;5013854;28;20037;-63
2021/12/13 05:57:19;;;;;;;10.75;7.90;;;77.20;2227.20;;;;;;5013668;28;20038;-56
2021/12/13 05:59:50;;;;;;;10.35;6.40;;;77.20;2227.20;;;;;;5013532;28;20487;-56
2021/12/13 06:02:36;;;;;;;10.23;7.35;;;77.30;2227.20;;;;;;5013285;28;20148;-51
2021/12/13 06:05:05;;;;;;;17.17;10.95;;;77.20;2227.20;;;;;;4999638;28;20479;-59
2021/12/13 06:07:35;;;;;;;12.43;9.18;;;77.20;2227.20;;;;;;5013448;28;20055;-62
2021/12/13 06:10:21;;;;;;;8.52;6.07;;;77.10;2227.20;;;;;;5013248;28;20022;-54
2021/12/13 06:12:49;;;;;;;13.10;10.48;;;77.20;2227.20;;;;;;5012988;28;20493;-59
2021/12/13 06:15:15;;;;;;;19.77;10.93;;;77.20;2227.20;;;;;;5013179;28;20109;-57
2021/12/13 06:18:18;;;;;;;11.38;7.63;;;77.10;2227.20;;;;;;5012980;28;20452;-54
2021/12/13 06:21:01;;;;;;;29.35;18.45;;;77.20;2227.20;;;;;;4933671;29;20036;-56
2021/12/13 06:23:30;;;;;;;25.77;19.60;;;77.20;2227.20;;;;;;4933138;29;20055;-61
2021/12/13 06:26:02;;;;;;;16.40;11.32;;;77.20;2227.20;;;;;;4933451;29;20028;-65
2021/12/13 06:28:35;;;;;;;93.20;62.10;;;77.10;2227.20;;;;;;4933319;29;20040;-67
2021/12/13 06:31:13;;;;;;;24.70;18.88;;;77.10;2227.20;;;;;;4933366;29;20028;-66
2021/12/13 06:33:53;;;;;;;26.40;20.13;;;77.20;2227.20;;;;;;4932682;29;20394;-55
2021/12/13 06:36:29;;;;;;;24.67;22.00;;;77.30;2227.20;;;;;;4939865;29;20526;-64
2021/12/13 06:38:59;;;;;;;11.00;9.32;;;77.40;2227.20;;;;;;4940732;28;20028;-63
2021/12/13 06:41:28;;;;;;;23.55;18.50;;;77.40;2227.20;;;;;;4942684;29;20115;-63
2021/12/13 06:43:56;;;;;;;10.90;8.18;;;77.40;2227.20;;;;;;4943152;29;20015;-62
2021/12/13 06:46:25;;;;;;;12.35;8.77;;;77.40;2227.20;;;;;;4952160;29;20031;-54
2021/12/13 06:49:20;;;;;;;24.88;20.80;;;77.40;2227.20;;;;;;4951658;29;20045;-56
2021/12/13 06:52:03;;;;;;;29.27;25.98;;;77.40;2227.20;;;;;;4943344;28;20143;-63
2021/12/13 06:54:43;;;;;;;12.25;10.43;;;77.30;2227.20;;;;;;4984470;28;20038;-64
2021/12/13 06:57:29;;;;;;;14.70;11.60;;;77.40;2227.20;;;;;;5032143;28;20035;-58
2021/12/13 07:00:07;;;;;;;13.10;7.10;;;77.40;2227.20;;;;;;5032270;28;20371;-60
2021/12/13 07:02:36;;;;;;;17.48;11.18;;;77.40;2227.20;;;;;;5032061;28;20025;-58
2021/12/13 07:05:13;;;;;;;27.63;23.52;;;77.40;2227.20;;;;;;5032106;28;20025;-63
2021/12/13 07:07:48;;;;;;;20.48;14.27;;;77.50;2227.20;;;;;;5031918;28;20029;-60
2021/12/13 07:10:20;;;;;;;20.40;14.25;;;77.50;2227.20;;;;;;5032098;28;20490;-57
2021/12/13 07:12:51;;;;;;;14.20;10.38;;;77.60;2227.20;;;;;;5031710;28;20033;-55
2021/12/13 07:15:24;;;;;;;36.88;33.30;;;77.60;2227.20;;;;;;5031564;28;20383;-57
2021/12/13 07:18:06;;;;;;;40.47;29.83;;;77.60;2227.20;;;;;;5031525;28;20025;-57
2021/12/13 07:20:47;;;;;;;13.23;7.68;;;77.70;2227.20;;;;;;5031897;28;20033;-66
2021/12/13 07:23:13;;;;;;;18.27;13.85;;;77.70;2227.20;;;;;;5031530;28;20061;-66
2021/12/13 07:25:41;;;;;;;47.35;31.55;;;77.70;2227.20;;;;;;5031459;28;20383;-59
2021/12/13 07:28:08;;;;;;;80.07;49.97;;;77.60;2227.20;;;;;;5031575;28;20083;-62
2021/12/13 07:30:36;;;;;;;78.97;51.47;;;77.50;2227.20;;;;;;5031782;28;20025;-62
2021/12/13 07:33:12;;;;;;;16.58;11.50;;;77.70;2227.20;;;;;;5031366;28;20379;-58
2021/12/13 07:35:43;;;;;;;38.45;25.63;;;77.70;2227.20;;;;;;5031230;28;20041;-59
2021/12/13 07:38:21;;;;;;;33.95;24.88;;;77.70;2227.20;;;;;;5031232;28;20479;-53
2021/12/13 07:40:57;;;;;;;11.65;9.43;;;102.40;2227.20;;;;;;5031337;28;20033;-56
2021/12/13 07:43:35;;;;;;;14.90;11.35;;;102.50;2227.20;;;;;;5031282;28;20026;-61
2021/12/13 07:46:21;;;;;;;15.43;10.52;;;102.60;2227.20;;;;;;5031060;28;20040;-65
2021/12/13 07:48:49;;;;;;;16.77;10.80;;;102.70;2227.20;;;;;;5031095;28;20036;-64
2021/12/13 07:51:34;;;;;;;12.63;9.75;;;102.50;2227.20;;;;;;5031238;28;20021;-64
2021/12/13 07:54:00;;;;;;;12.50;10.40;;;102.50;2227.20;;;;;;5031233;28;20056;-66
2021/12/13 07:56:49;;;;;;;14.63;7.55;;;102.50;2227.20;;;;;;5030749;28;20381;-52
2021/12/13 07:59:29;;;;;;;10.35;7.45;;;102.60;2227.20;;;;;;5031096;28;20033;-56
2021/12/13 08:01:57;;;;;;;13.40;8.80;;;102.70;2227.20;;;;;;5031117;28;20076;-58
2021/12/13 08:04:36;;;;;;;10.77;8.05;;;102.60;2227.20;;;;;;5030325;28;20076;-65
2021/12/13 08:07:16;;;;;;;10.82;6.60;;;102.70;2227.20;;;;;;5030992;28;20021;-58
2021/12/13 08:09:55;;;;;;;14.35;7.72;;;102.60;2227.20;;;;;;5030955;28;20438;-60
2021/12/13 08:12:26;;;;;;;10.82;7.53;;;102.60;2227.20;;;;;;5030825;28;20402;-64
2021/12/13 08:15:15;;;;;;;10.93;8.60;;;102.60;2227.20;;;;;;5030970;28;20104;-65
2021/12/13 08:17:54;;;;;;;9.52;6.63;;;102.70;2227.20;;;;;;4969566;28;20393;-64
2021/12/13 08:20:42;;;;;;;13.27;8.35;;;102.70;2227.20;;;;;;4969433;28;20035;-65
2021/12/13 08:23:19;;;;;;;8.82;6.38;;;103.00;2227.20;;;;;;4969304;28;20749;-65
2021/12/13 08:25:48;;;;;;;8.55;5.97;;;103.10;2227.20;;;;;;4969727;28;20034;-60
2021/12/13 08:28:18;;;;;;;7.55;5.95;;;103.10;2227.20;;;;;;4969811;28;20042;-65
2021/12/13 08:30:48;;;;;;;11.57;8.40;;;103.20;2227.20;;;;;;4969660;28;20477;-65
2021/12/13 08:33:39;;;;;;;10.98;6.32;;;103.20;2227.20;;;;;;4969574;28;20026;-62
2021/12/13 08:36:26;;;;;;;109.80;79.60;;;103.30;2227.20;;;;;;4961382;28;20125;-60
2021/12/13 08:39:06;;;;;;;47.00;30.80;;;103.30;2227.20;;;;;;4969657;28;20425;-62
2021/12/13 08:41:56;;;;;;;36.63;24.60;;;128.10;2252.80;;;;;;4969450;28;20035;-66
2021/12/13 08:44:30;;;;;;;61.65;46.55;;;128.10;2252.80;;;;;;4969368;28;20033;-64
2021/12/13 08:47:09;;;;;;;34.25;26.13;;;128.10;2252.80;;;;;;4969849;28;20453;-53
2021/12/13 08:49:56;;;;;;;9.57;6.85;;;128.10;2252.80;;;;;;4969628;28;20093;-58
2021/12/13 08:52:34;;;;;;;31.48;24.30;;;128.20;2252.80;;;;;;4969235;28;20062;-63
2021/12/13 08:55:12;;;;;;;22.63;17.75;;;128.40;2252.80;;;;;;5005501;28;20116;-61
2021/12/13 08:57:44;;;;;;;13.63;9.15;;;128.50;2252.80;;;;;;5030204;28;20030;-55
2021/12/13 09:00:13;;;;;;;15.38;11.15;;;128.50;2252.80;;;;;;5030055;28;20112;-56
2021/12/13 09:02:46;;;;;;;11.27;8.43;;;128.70;2252.80;;;;;;5030114;28;20060;-56
2021/12/13 09:05:18;;;;;;;20.92;17.15;;;128.40;2252.80;;;;;;5030432;28;20029;-56
2021/12/13 09:08:05;;;;;;;12.98;10.80;;;128.40;2252.80;;;;;;5030351;28;20033;-56
2021/12/13 09:10:43;;;;;;;10.90;8.93;;;128.40;2252.80;;;;;;5030024;28;20030;-60
2021/12/13 09:13:11;;;;;;;15.25;11.77;;;128.50;2252.80;;;;;;5029931;28;20022;-60
2021/12/13 09:15:38;;;;;;;10.18;7.60;;;128.70;2252.80;;;;;;5032636;28;20115;-64
2021/12/13 09:18:06;;;;;;;33.25;25.13;;;128.60;2252.80;;;;;;5034140;28;20108;-63
2021/12/13 09:20:49;;;;;;;16.35;12.73;;;128.50;2252.80;;;;;;5034141;28;20026;-62
2021/12/13 09:23:47;;;;;;;8.83;6.63;;;128.80;2252.80;;;;;;5033765;28;20067;-67
2021/12/13 09:26:25;;;;;;;9.85;7.40;;;128.90;2252.80;;;;;;5034171;28;20263;-66
2021/12/13 09:28:59;;;;;;;9.85;6.88;;;153.60;2252.80;;;;;;5033667;28;20021;-65
2021/12/13 09:31:32;;;;;;;10.73;8.50;;;153.80;2252.80;;;;;;5033770;28;20470;-55
2021/12/13 09:34:14;;;;;;;11.73;6.00;;;153.60;2252.80;;;;;;5033498;28;20077;-60
2021/12/13 09:36:44;;;;;;;11.70;8.63;;;128.90;2252.80;;;;;;5033511;28;20045;-57
2021/12/13 09:39:17;;;;;;;11.02;6.72;;;128.90;2252.80;;;;;;5015399;28;20026;-63
2021/12/13 09:42:04;;;;;;;12.50;7.97;;;128.80;2252.80;;;;;;5033627;28;20033;-63
2021/12/13 09:44:48;;;;;;;8.55;6.75;;;128.90;2252.80;;;;;;5033440;28;20026;-63
2021/12/13 09:47:35;;;;;;;10.48;7.78;;;153.60;2252.80;;;;;;5033608;28;20071;-64
2021/12/13 09:50:18;;;;;;;10.15;7.28;;;153.60;2252.80;;;;;;5033491;28;20423;-65
2021/12/13 09:52:54;;;;;;;14.23;9.68;;;153.60;2252.80;;;;;;5033370;28;20108;-63
2021/12/13 09:55:26;;;;;;;11.48;8.52;;;128.90;2252.80;;;;;;5033153;28;20082;-61
2021/12/13 09:58:05;;;;;;;13.55;8.43;;;153.70;2252.80;;;;;;5033313;28;20029;-63
2021/12/13 10:00:41;;;;;;;8.38;7.30;;;154.00;2252.80;;;;;;5033244;28;20099;-63
2021/12/13 10:03:29;;;;;;;13.45;6.78;;;153.80;2252.80;;;;;;5033069;28;20061;-63
2021/12/13 10:06:00;;;;;;;8.75;5.78;;;154.10;2252.80;;;;;;5033363;28;20049;-65
2021/12/13 10:08:41;;;;;;;14.10;11.32;;;154.00;2252.80;;;;;;5032838;28;20471;-60
2021/12/13 10:11:12;;;;;;;12.95;9.20;;;154.10;2252.80;;;;;;5032905;28;20029;-59
2021/12/13 10:13:39;;;;;;;9.63;5.85;;;154.30;2252.80;;;;;;5032595;28;20021;-66
2021/12/13 10:16:11;;;;;;;9.35;7.00;;;154.20;2252.80;;;;;;5033216;28;20440;-61
2021/12/13 10:18:39;;;;;;;8.52;6.38;;;154.50;2252.80;;;;;;5032895;28;20028;-59
2021/12/13 10:21:15;;;;;;;9.02;6.43;;;154.40;2252.80;;;;;;5032860;28;20108;-62
2021/12/13 10:23:46;;;;;;;12.32;8.43;;;154.40;2252.80;;;;;;5032432;28;20516;-59
2021/12/13 10:26:14;;;;;;;13.38;7.80;;;154.50;2252.80;;;;;;5032175;28;20049;-62
2021/12/13 10:28:45;;;;;;;11.98;8.60;;;154.30;2252.80;;;;;;5032669;28;20101;-57
2021/12/13 10:31:15;;;;;;;10.45;8.07;;;154.50;2252.80;;;;;;5032638;28;20021;-65
2021/12/13 10:33:41;;;;;;;20.13;14.85;;;154.30;2252.80;;;;;;5032280;28;20036;-64
2021/12/13 10:36:08;;;;;;;20.50;16.98;;;154.10;2252.80;;;;;;5032428;28;20029;-57
2021/12/13 10:38:39;;;;;;;10.15;7.43;;;153.90;2252.80;;;;;;5032569;28;20071;-66
2021/12/13 10:41:13;;;;;;;17.95;12.38;;;154.20;2252.80;;;;;;5032441;28;20383;-66
2021/12/13 10:43:43;;;;;;;7.43;5.78;;;154.20;2252.80;;;;;;5032616;28;20068;-66
2021/12/13 10:46:13;;;;;;;14.23;10.25;;;154.20;2252.80;;;;;;5032228;28;20479;-53
2021/12/13 10:48:46;;;;;;;36.13;26.75;;;154.30;2252.80;;;;;;5032628;28;20372;-66
2021/12/13 10:51:15;;;;;;;14.40;10.50;;;154.40;2252.80;;;;;;5032376;28;20029;-67
2021/12/13 10:53:44;;;;;;;13.73;10.70;;;154.20;2252.80;;;;;;5032054;28;20084;-66
2021/12/13 10:56:20;;;;;;;9.55;6.68;;;154.40;2252.80;;;;;;5032302;28;20430;-61
2021/12/13 10:58:49;;;;;;;37.00;27.40;;;154.40;2252.80;;;;;;4991050;28;20358;-53
2021/12/13 11:01:27;;;;;;;52.55;44.70;;;154.40;2252.80;;;;;;4990772;28;20047;-66
2021/12/13 11:03:56;;;;;;;13.93;11.32;;;179.20;2252.80;;;;;;4990613;28;20038;-66
2021/12/13 11:06:24;;;;;;;20.13;14.73;;;154.30;2252.80;;;;;;4990652;28;20023;-68
2021/12/13 11:08:51;;;;;;;20.02;15.73;;;154.30;2252.80;;;;;;4990450;28;20113;-60
2021/12/13 11:11:48;;;;;;;9.93;7.32;;;154.30;2252.80;;;;;;4987182;28;20034;-62
2021/12/13 11:14:17;;;;;;;10.40;7.20;;;154.20;2252.80;;;;;;4974506;28;20035;-68
2021/12/13 11:16:47;;;;;;;19.80;14.55;;;154.20;2252.80;;;;;;4970869;28;20042;-68
2021/12/13 11:19:17;;;;;;;19.77;15.63;;;154.00;2252.80;;;;;;4971079;28;20432;-66
2021/12/13 11:21:46;;;;;;;14.35;9.73;;;154.00;2252.80;;;;;;4970660;28;20039;-67
2021/12/13 11:24:19;;;;;;;25.15;16.20;;;154.00;2252.80;;;;;;4970690;28;20424;-67
2021/12/13 11:26:46;;;;;;;;;;;153.90;2252.80;;;;;;4971247;28;20038;-70
2021/12/13 11:29:14;;;;;;;18.63;11.73;;;153.90;2252.80;;;;;;4987362;28;19909;-65
2021/12/13 11:31:52;;;;;;;16.23;9.43;;;154.00;2252.80;;;;;;5031518;28;20017;-68
2021/12/13 11:34:39;;;;;;;22.08;13.38;;;154.00;2252.80;;;;;;5031465;28;20021;-62
2021/12/13 11:37:26;;;;;;;13.95;9.88;;;153.90;2252.80;;;;;;5031597;28;20459;-65
2021/12/13 11:40:09;;;;;;;25.08;16.55;;;154.00;2252.80;;;;;;5030699;28;20036;-69
2021/12/13 11:43:06;;;;;;;20.73;15.13;;;153.70;2252.80;;;;;;5031559;28;20057;-66
2021/12/13 11:45:41;;;;;;;16.50;9.88;;;153.80;2252.80;;;;;;5031144;28;20033;-65
2021/12/13 11:49:04;;;;;;;14.52;8.63;;;154.10;2252.80;;;;;;5030972;28;20087;-67
2021/12/13 11:51:48;;;;;;;12.20;7.82;;;154.10;2252.80;;;;;;4989353;28;20034;-68
2021/12/13 11:54:32;;;;;;;;;;;153.90;2252.80;;;;;;4987814;28;20046;-70
2021/12/13 11:57:56;;;;;;;19.80;17.08;;;153.80;2252.80;;;;;;4987395;28;20450;-64
2021/12/13 12:00:55;;;;;;;23.52;21.08;;;153.80;2252.80;;;;;;4983676;28;20053;-61
2021/12/13 12:04:09;;;;;;;15.43;11.43;;;154.00;2252.80;;;;;;4977826;28;20094;-63
2021/12/13 12:06:54;;;;;;;13.77;8.88;;;154.00;2252.80;;;;;;4977427;28;20025;-64
2021/12/13 12:09:22;;;;;;;29.58;19.63;;;153.90;2252.80;;;;;;4977365;28;20022;-67
2021/12/13 12:12:22;;;;;;;19.55;10.38;;;154.20;2252.80;;;;;;4976751;28;20031;-65
2021/12/13 12:14:50;;;;;;;24.05;18.42;;;154.00;2252.80;;;;;;4977186;28;20037;-69
2021/12/13 12:17:17;;;;;;;19.30;11.80;;;153.80;2252.80;;;;;;4977447;28;20103;-67
2021/12/13 12:19:44;;;;;;;37.35;31.40;;;154.00;2252.80;;;;;;4975582;28;20023;-64
2021/12/13 12:22:16;;;;;;;14.23;10.95;;;154.00;2252.80;;;;;;4994144;28;20029;-65
2021/12/13 12:24:54;;;;;;;13.73;10.55;;;153.90;2252.80;;;;;;5017654;28;20595;-59
2021/12/13 12:27:30;;;;;;;17.55;12.10;;;154.20;2252.80;;;;;;5017332;28;20045;-67
2021/12/13 12:30:15;;;;;;;23.67;15.82;;;154.00;2252.80;;;;;;5017452;28;20379;-62
2021/12/13 12:32:54;;;;;;;11.20;7.53;;;154.10;2252.80;;;;;;5019088;28;20076;-63
2021/12/13 12:35:21;;;;;;;15.90;10.60;;;154.10;2252.80;;;;;;5018699;28;20018;-68
2021/12/13 12:38:03;;;;;;;13.70;9.95;;;154.30;2252.80;;;;;;5016534;28;20033;-62
2021/12/13 12:40:37;;;;;;;10.98;7.90;;;154.10;2252.80;;;;;;5017649;28;20434;-66
2021/12/13 12:43:20;;;;;;;15.48;10.20;;;154.20;2252.80;;;;;;5017411;28;20022;-53
2021/12/13 12:45:51;;;;;;;10.97;9.20;;;154.30;2252.80;;;;;;5017154;28;20026;-59
2021/12/13 12:48:16;;;;;;;17.80;14.05;;;154.20;2252.80;;;;;;5017396;28;20013;-56
2021/12/13 12:50:43;;;;;;;13.20;10.05;;;154.20;2252.80;;;;;;5014002;28;20018;-63
2021/12/13 12:53:11;;;;;;;12.98;9.80;;;154.10;2252.80;;;;;;5014413;28;20032;-53
2021/12/13 12:55:42;;;;;;;16.70;11.82;;;153.90;2252.80;;;;;;5018383;28;20056;-67
2021/12/13 12:58:25;;;;;;;28.02;19.60;;;154.00;2252.80;;;;;;5017108;28;20025;-66
2021/12/13 13:00:54;;;;;;;15.80;10.75;;;154.00;2252.80;;;;;;5017667;28;20053;-61
2021/12/13 13:03:32;;;;;;;17.73;10.15;;;153.80;2252.80;;;;;;5016243;28;20033;-65